createdAt,value
2023-02-14T00:01:15.471Z,101094.99
2023-02-14T00:03:41.515Z,101095.04
2023-02-14T00:06:13.578Z,101097.33
2023-02-14T00:08:40.451Z,101101.40
2023-02-14T00:11:07.885Z,101101.83
2023-02-14T00:13:33.940Z,101100.98
2023-02-14T00:16:00.036Z,101105.41
2023-02-14T00:18:45.293Z,101099.06
2023-02-14T00:21:11.330Z,101097.64
2023-02-14T00:23:37.259Z,101097.56
2023-02-14T00:26:03.263Z,101098.20
2023-02-14T00:28:29.302Z,101093.44
2023-02-14T00:31:01.288Z,101093.23
2023-02-14T00:33:27.489Z,101086.13
2023-02-14T00:35:53.418Z,101085.39
2023-02-14T00:38:20.281Z,101087.98
2023-02-14T00:40:46.203Z,101091.52
2023-02-14T00:43:12.105Z,101098.73
2023-02-14T00:45:38.022Z,101101.92
2023-02-14T00:48:04.366Z,101104.42
2023-02-14T00:50:30.257Z,101097.51
2023-02-14T00:52:56.190Z,101100.55
2023-02-14T00:55:23.382Z,101102.39
2023-02-14T00:57:49.292Z,101100.54
2023-02-14T01:00:15.814Z,101098.27
2023-02-14T01:02:41.754Z,101097.52
2023-02-14T01:05:07.849Z,101097.92
2023-02-14T01:07:35.233Z,101098.48
2023-02-14T01:10:01.241Z,101096.92
2023-02-14T01:12:29.716Z,101097.72
2023-02-14T01:14:55.612Z,101099.91
2023-02-14T01:17:21.541Z,101099.55
2023-02-14T01:19:47.572Z,101099.16
2023-02-14T01:22:13.471Z,101096.41
2023-02-14T01:24:39.377Z,101096.29
2023-02-14T01:27:05.320Z,101092.20
2023-02-14T01:29:31.722Z,101094.21
2023-02-14T01:31:57.753Z,101089.11
2023-02-14T01:34:24.330Z,101081.39
2023-02-14T01:36:50.236Z,101078.09
2023-02-14T01:39:18.029Z,101078.54
2023-02-14T01:41:47.942Z,101082.15
2023-02-14T01:44:16.224Z,101080.98
2023-02-14T01:46:43.261Z,101079.15
2023-02-14T01:49:15.022Z,101079.01
2023-02-14T01:51:47.805Z,101073.73
2023-02-14T01:54:13.728Z,101067.93
2023-02-14T01:56:44.859Z,101069.14
2023-02-14T01:59:32.387Z,101061.52
2023-02-14T02:01:58.347Z,101062.55
2023-02-14T02:04:44.957Z,101061.24
2023-02-14T02:07:13.615Z,101064.48
2023-02-14T02:09:51.014Z,101069.88
2023-02-14T02:12:16.918Z,101069.97
2023-02-14T02:14:42.941Z,101072.95
2023-02-14T02:17:20.570Z,101074.11
2023-02-14T02:20:24.493Z,101075.98
2023-02-14T02:23:12.211Z,101071.00
2023-02-14T02:25:47.494Z,101070.41
2023-02-14T02:28:46.850Z,101073.23
2023-02-14T02:31:26.282Z,101076.80
2023-02-14T02:34:11.162Z,101070.72
2023-02-14T02:36:47.817Z,101070.83
2023-02-14T02:39:35.192Z,101068.50
2023-02-14T02:42:05.679Z,101066.12
2023-02-14T02:44:51.864Z,101064.21
2023-02-14T02:47:25.893Z,101069.55
2023-02-14T02:50:52.023Z,101072.77
2023-02-14T02:53:22.533Z,101080.52
2023-02-14T02:56:38.130Z,101079.91
2023-02-14T02:59:06.532Z,101077.48
2023-02-14T03:01:37.698Z,101080.20
2023-02-14T03:04:25.426Z,101085.48
2023-02-14T03:06:51.713Z,101086.29
2023-02-14T03:09:20.461Z,101087.23
2023-02-14T03:12:07.724Z,101087.48
2023-02-14T03:14:44.091Z,101097.80
2023-02-14T03:17:54.904Z,101100.48
2023-02-14T03:20:23.967Z,101088.23
2023-02-14T03:23:03.694Z,101083.69
2023-02-14T03:25:41.808Z,101093.08
2023-02-14T03:28:43.248Z,101100.19
2023-02-14T03:31:17.346Z,101098.41
2023-02-14T03:33:48.496Z,101087.13
2023-02-14T03:36:23.563Z,101105.50
2023-02-14T03:39:08.628Z,101106.38
2023-02-14T03:41:41.206Z,101104.02
2023-02-14T03:44:09.518Z,101102.94
2023-02-14T03:46:38.681Z,101101.55
2023-02-14T03:49:06.935Z,101106.83
2023-02-14T03:51:33.708Z,101115.25
2023-02-14T03:53:59.719Z,101111.20
2023-02-14T03:56:34.071Z,101111.39
2023-02-14T03:59:05.594Z,101114.08
2023-02-14T04:01:49.896Z,101114.03
2023-02-14T04:04:17.683Z,101121.92
2023-02-14T04:06:43.627Z,101120.00
2023-02-14T04:09:09.686Z,101113.73
2023-02-14T04:11:37.844Z,101117.21
2023-02-14T04:14:03.853Z,101118.69
2023-02-14T04:16:30.061Z,101117.56
2023-02-14T04:19:16.273Z,101109.48
2023-02-14T04:21:42.205Z,101102.64
2023-02-14T04:24:08.153Z,101105.30
2023-02-14T04:26:34.074Z,101118.19
2023-02-14T04:29:00.034Z,101117.88
2023-02-14T04:31:26.042Z,101113.40
2023-02-14T04:33:52.215Z,101121.18
2023-02-14T04:36:18.139Z,101121.46
2023-02-14T04:38:44.018Z,101123.73
2023-02-14T04:41:09.948Z,101121.86
2023-02-14T04:43:35.839Z,101116.33
2023-02-14T04:46:01.759Z,101123.58
2023-02-14T04:48:27.964Z,101122.91
2023-02-14T04:50:54.510Z,101125.90
2023-02-14T04:53:21.214Z,101124.44
2023-02-14T04:55:50.241Z,101126.23
2023-02-14T04:58:16.762Z,101132.02
2023-02-14T05:00:42.737Z,101130.52
2023-02-14T05:03:08.761Z,101129.24
2023-02-14T05:05:34.750Z,101129.76
2023-02-14T05:08:00.623Z,101128.23
2023-02-14T05:10:26.549Z,101123.66
2023-02-14T05:12:52.448Z,101129.02
2023-02-14T05:15:18.387Z,101130.20
2023-02-14T05:17:44.435Z,101129.26
2023-02-14T05:20:10.819Z,101127.41
2023-02-14T05:22:36.702Z,101126.70
2023-02-14T05:25:02.633Z,101126.94
2023-02-14T05:27:28.568Z,101127.14
2023-02-14T05:29:54.512Z,101130.00
2023-02-14T05:32:20.648Z,101135.98
2023-02-14T05:34:46.620Z,101131.26
2023-02-14T05:37:12.541Z,101127.40
2023-02-14T05:39:38.512Z,101138.44
2023-02-14T05:42:04.451Z,101146.02
2023-02-14T05:44:30.354Z,101142.12
2023-02-14T05:46:56.323Z,101141.33
2023-02-14T05:49:22.253Z,101140.43
2023-02-14T05:51:48.192Z,101137.73
2023-02-14T05:54:14.098Z,101142.33
2023-02-14T05:56:40.027Z,101142.10
2023-02-14T05:59:06.021Z,101139.54
2023-02-14T06:01:31.916Z,101145.14
2023-02-14T06:03:58.148Z,101152.18
2023-02-14T06:06:24.314Z,101159.27
2023-02-14T06:08:50.292Z,101160.77
2023-02-14T06:11:16.203Z,101156.38
2023-02-14T06:13:42.109Z,101159.58
2023-02-14T06:16:08.310Z,101164.63
2023-02-14T06:18:34.436Z,101164.25
2023-02-14T06:21:00.691Z,101166.63
2023-02-14T06:23:26.784Z,101166.77
2023-02-14T06:25:52.704Z,101169.99
2023-02-14T06:28:18.589Z,101170.38
2023-02-14T06:30:46.257Z,101175.34
2023-02-14T06:33:12.736Z,101175.30
2023-02-14T06:35:38.743Z,101175.81
2023-02-14T06:38:04.940Z,101173.98
2023-02-14T06:40:30.891Z,101175.20
2023-02-14T06:42:56.793Z,101179.58
2023-02-14T06:45:22.736Z,101178.42
2023-02-14T06:47:48.654Z,101170.12
2023-02-14T06:50:14.660Z,101173.27
2023-02-14T06:52:42.175Z,101187.55
2023-02-14T06:55:08.579Z,101191.52
2023-02-14T06:57:34.503Z,101186.58
2023-02-14T07:00:00.424Z,101182.44
2023-02-14T07:02:26.420Z,101193.55
2023-02-14T07:04:52.499Z,101189.15
2023-02-14T07:07:18.556Z,101190.67
2023-02-14T07:09:44.490Z,101199.62
2023-02-14T07:12:10.416Z,101203.02
2023-02-14T07:14:36.360Z,101207.45
2023-02-14T07:17:02.377Z,101207.25
2023-02-14T07:19:28.401Z,101215.12
2023-02-14T07:21:54.421Z,101207.43
2023-02-14T07:24:20.331Z,101211.25
2023-02-14T07:26:46.365Z,101214.67
2023-02-14T07:29:12.394Z,101213.84
2023-02-14T07:31:38.447Z,101210.19
2023-02-14T07:34:04.457Z,101215.83
2023-02-14T07:36:30.446Z,101222.98
2023-02-14T07:38:56.653Z,101223.76
2023-02-14T07:41:22.829Z,101217.25
2023-02-14T07:43:48.725Z,101210.83
2023-02-14T07:46:16.764Z,101212.05
2023-02-14T07:48:42.830Z,101210.33
2023-02-14T07:51:08.819Z,101203.55
2023-02-14T07:53:34.802Z,101207.67
2023-02-14T07:56:00.802Z,101213.15
2023-02-14T07:58:26.733Z,101215.79
2023-02-14T08:00:52.643Z,101212.43
2023-02-14T08:03:18.673Z,101208.98
2023-02-14T08:05:44.638Z,101216.98
2023-02-14T08:08:10.620Z,101216.35
2023-02-14T08:10:36.544Z,101210.87
2023-02-14T08:13:02.978Z,101207.73
2023-02-14T08:15:51.924Z,101213.83
2023-02-14T08:18:19.120Z,101220.34
2023-02-14T08:20:46.030Z,101227.36
2023-02-14T08:23:11.967Z,101225.02
2023-02-14T08:25:38.800Z,101226.64
2023-02-14T08:28:04.813Z,101230.92
2023-02-14T08:30:31.369Z,101233.86
2023-02-14T08:32:57.659Z,101238.86
2023-02-14T08:35:25.959Z,101231.70
2023-02-14T08:37:52.158Z,101222.64
2023-02-14T08:40:18.224Z,101223.63
2023-02-14T08:42:44.131Z,101225.91
2023-02-14T08:45:10.126Z,101229.90
2023-02-14T08:47:37.718Z,101228.37
2023-02-14T08:50:09.106Z,101222.46
2023-02-14T08:52:35.083Z,101237.45
2023-02-14T08:55:02.227Z,101245.39
2023-02-14T08:57:28.275Z,101243.85
2023-02-14T08:59:54.336Z,101247.38
2023-02-14T09:02:20.339Z,101249.35
2023-02-14T09:04:46.331Z,101257.09
2023-02-14T09:07:12.384Z,101252.86
2023-02-14T09:09:38.401Z,101245.10
2023-02-14T09:12:05.708Z,101248.66
2023-02-14T09:14:38.692Z,101257.91
2023-02-14T09:17:05.392Z,101261.36
2023-02-14T09:19:32.846Z,101262.47
2023-02-14T09:21:59.353Z,101269.86
2023-02-14T09:24:27.019Z,101271.16
2023-02-14T09:26:53.687Z,101267.67
2023-02-14T09:29:19.629Z,101265.91
2023-02-14T09:31:45.664Z,101267.83
2023-02-14T09:34:11.728Z,101272.91
2023-02-14T09:36:37.651Z,101274.41
2023-02-14T09:39:03.578Z,101273.27
2023-02-14T09:41:29.486Z,101274.48
2023-02-14T09:43:59.924Z,101276.25
2023-02-14T09:46:26.250Z,101277.39
2023-02-14T09:48:52.343Z,101273.00
2023-02-14T09:51:24.751Z,101279.38
2023-02-14T09:53:53.654Z,101286.56
2023-02-14T09:56:26.725Z,101279.42
2023-02-14T09:59:15.203Z,101279.84
2023-02-14T10:01:48.933Z,101271.92
2023-02-14T10:04:38.728Z,101276.20
2023-02-14T10:07:18.508Z,101273.65
2023-02-14T10:10:11.969Z,101273.56
2023-02-14T10:13:00.048Z,101273.54
2023-02-14T10:15:30.263Z,101272.88
2023-02-14T10:18:02.258Z,101266.86
2023-02-14T10:20:38.239Z,101266.81
2023-02-14T10:23:19.129Z,101261.29
2023-02-14T10:25:51.889Z,101272.74
2023-02-14T10:28:17.948Z,101268.38
2023-02-14T10:30:49.945Z,101263.81
2023-02-14T10:33:17.072Z,101262.36
2023-02-14T10:35:48.330Z,101255.90
2023-02-14T10:38:32.760Z,101254.88
2023-02-14T10:41:17.131Z,101252.70
2023-02-14T10:43:49.569Z,101253.77
2023-02-14T10:46:28.058Z,101253.14
2023-02-14T10:49:19.114Z,101259.20
2023-02-14T10:51:49.551Z,101256.90
2023-02-14T10:54:22.082Z,101255.59
2023-02-14T10:57:02.755Z,101265.01
2023-02-14T11:00:01.676Z,101257.64
2023-02-14T11:02:34.572Z,101261.39
2023-02-14T11:05:00.598Z,101264.88
2023-02-14T11:07:26.650Z,101259.61
2023-02-14T11:09:52.740Z,101261.05
2023-02-14T11:12:38.851Z,101258.15
2023-02-14T11:15:15.111Z,101259.27
2023-02-14T11:17:41.562Z,101257.80
2023-02-14T11:20:22.863Z,101253.48
2023-02-14T11:22:49.144Z,101249.86
2023-02-14T11:25:18.112Z,101248.97
2023-02-14T11:27:49.326Z,101247.66
2023-02-14T11:30:42.768Z,101247.87
2023-02-14T11:33:12.953Z,101242.59
2023-02-14T11:35:38.995Z,101241.44
2023-02-14T11:38:06.377Z,101234.66
2023-02-14T11:40:38.942Z,101234.89
2023-02-14T11:43:14.366Z,101233.63
2023-02-14T11:45:45.027Z,101232.84
2023-02-14T11:48:38.605Z,101233.59
2023-02-14T11:51:10.363Z,101239.91
2023-02-14T11:53:46.765Z,101232.18
2023-02-14T11:56:13.853Z,101227.36
2023-02-14T11:58:40.898Z,101228.30
2023-02-14T12:01:07.132Z,101223.55
2023-02-14T12:03:43.428Z,101221.56
2023-02-14T12:06:09.551Z,101220.70
2023-02-14T12:08:38.328Z,101221.67
2023-02-14T12:11:05.979Z,101219.71
2023-02-14T12:13:32.086Z,101215.09
2023-02-14T12:15:58.463Z,101215.77
2023-02-14T12:18:50.999Z,101215.39
2023-02-14T12:21:22.497Z,101216.70
2023-02-14T12:24:00.759Z,101217.54
2023-02-14T12:26:49.191Z,101219.90
2023-02-14T12:29:30.883Z,101215.70
2023-02-14T12:32:01.148Z,101218.20
2023-02-14T12:34:27.212Z,101217.55
2023-02-14T12:37:11.595Z,101216.63
2023-02-14T12:39:42.538Z,101214.41
2023-02-14T12:42:34.390Z,101216.23
2023-02-14T12:45:29.021Z,101215.14
2023-02-14T12:48:21.530Z,101215.53
2023-02-14T12:50:50.784Z,101210.73
2023-02-14T12:53:25.586Z,101206.34
2023-02-14T12:56:30.900Z,101206.92
2023-02-14T12:59:41.630Z,101205.34
2023-02-14T13:02:37.392Z,101201.01
2023-02-14T13:05:16.125Z,101198.51
2023-02-14T13:07:51.046Z,101198.05
2023-02-14T13:10:26.729Z,101195.16
2023-02-14T13:13:01.833Z,101191.69
2023-02-14T13:15:33.863Z,101195.61
2023-02-14T13:18:02.961Z,101194.15
2023-02-14T13:20:44.955Z,101196.64
2023-02-14T13:23:35.458Z,101198.27
2023-02-14T13:26:09.857Z,101190.40
2023-02-14T13:28:35.765Z,101199.73
2023-02-14T13:31:02.469Z,101201.64
2023-02-14T13:33:39.111Z,101199.33
2023-02-14T13:36:10.260Z,101201.55
2023-02-14T13:38:47.609Z,101202.61
2023-02-14T13:41:13.815Z,101198.17
2023-02-14T13:43:57.070Z,101198.08
2023-02-14T13:46:29.503Z,101199.63
2023-02-14T13:49:23.872Z,101195.89
2023-02-14T13:51:52.210Z,101196.70
2023-02-14T13:54:39.782Z,101199.52
2023-02-14T13:57:44.453Z,101191.40
2023-02-14T14:00:19.213Z,101196.30
2023-02-14T14:02:49.388Z,101194.41
2023-02-14T14:05:31.884Z,101199.38
2023-02-14T14:08:22.870Z,101194.42
2023-02-14T14:10:50.418Z,101197.38
2023-02-14T14:13:41.559Z,101201.23
2023-02-14T14:16:34.221Z,101201.50
2023-02-14T14:19:04.479Z,101193.78
2023-02-14T14:21:32.049Z,101199.91
2023-02-14T14:24:23.183Z,101203.36
2023-02-14T14:27:09.074Z,101198.45
2023-02-14T14:29:52.135Z,101195.23
2023-02-14T14:32:35.433Z,101191.79
2023-02-14T14:35:12.216Z,101191.86
2023-02-14T14:37:49.303Z,101194.65
2023-02-14T14:40:36.330Z,101194.72
2023-02-14T14:43:13.688Z,101195.30
2023-02-14T14:45:42.532Z,101199.27
2023-02-14T14:48:13.763Z,101197.45
2023-02-14T14:50:39.709Z,101202.20
2023-02-14T14:53:18.683Z,101199.00
2023-02-14T14:55:45.564Z,101197.30
2023-02-14T14:58:41.268Z,101196.68
2023-02-14T15:01:12.528Z,101192.92
2023-02-14T15:03:38.620Z,101195.56
2023-02-14T15:06:20.535Z,101198.63
2023-02-14T15:08:47.889Z,101192.15
2023-02-14T15:11:38.387Z,101184.15
2023-02-14T15:14:10.331Z,101183.77
2023-02-14T15:17:05.147Z,101182.55
2023-02-14T15:19:38.036Z,101184.27
2023-02-14T15:22:05.890Z,101189.71
2023-02-14T15:24:34.677Z,101192.87
2023-02-14T15:27:01.565Z,101191.72
2023-02-14T15:29:29.773Z,101186.38
2023-02-14T15:31:56.659Z,101192.25
2023-02-14T15:34:27.047Z,101196.42
2023-02-14T15:36:57.081Z,101200.95
2023-02-14T15:39:27.855Z,101195.88
2023-02-14T15:41:54.985Z,101195.70
2023-02-14T15:44:21.588Z,101196.25
2023-02-14T15:46:56.824Z,101204.24
2023-02-14T15:49:30.839Z,101205.41
2023-02-14T15:51:56.759Z,101206.55
2023-02-14T15:54:37.556Z,101206.70
2023-02-14T15:57:04.831Z,101208.60
2023-02-14T15:59:32.876Z,101208.97
2023-02-14T16:02:01.112Z,101202.86
2023-02-14T16:04:28.682Z,101211.33
2023-02-14T16:07:22.735Z,101212.33
2023-02-14T16:09:49.352Z,101211.34
2023-02-14T16:12:36.437Z,101205.45
2023-02-14T16:15:14.543Z,101211.23
2023-02-14T16:17:43.436Z,101209.23
2023-02-14T16:20:24.662Z,101208.92
2023-02-14T16:22:51.044Z,101209.15
2023-02-14T16:25:17.663Z,101208.27
2023-02-14T16:27:43.651Z,101208.75
2023-02-14T16:30:19.181Z,101208.20
2023-02-14T16:32:50.058Z,101213.35
2023-02-14T16:35:27.868Z,101214.19
2023-02-14T16:37:54.140Z,101214.20
2023-02-14T16:40:23.217Z,101213.20
2023-02-14T16:43:24.985Z,101213.99
2023-02-14T16:45:52.839Z,101218.15
2023-02-14T16:48:19.291Z,101218.74
2023-02-14T16:50:51.863Z,101213.02
2023-02-14T16:53:33.967Z,101217.00
2023-02-14T16:56:38.085Z,101221.09
2023-02-14T16:59:04.570Z,101226.95
2023-02-14T17:01:32.054Z,101228.60
2023-02-14T17:03:58.110Z,101224.91
2023-02-14T17:06:26.987Z,101229.36
2023-02-14T17:08:53.816Z,101231.10
2023-02-14T17:11:20.992Z,101231.80
2023-02-14T17:13:47.105Z,101229.51
2023-02-14T17:16:14.954Z,101231.02
2023-02-14T17:18:58.574Z,101230.34
2023-02-14T17:21:31.043Z,101228.54
2023-02-14T17:23:57.925Z,101229.10
2023-02-14T17:26:24.175Z,101226.95
2023-02-14T17:28:50.076Z,101228.98
2023-02-14T17:31:16.143Z,101228.70
2023-02-14T17:33:42.636Z,101223.19
2023-02-14T17:36:12.009Z,101226.18
2023-02-14T17:38:38.902Z,101227.71
2023-02-14T17:41:19.794Z,101229.33
2023-02-14T17:43:46.301Z,101225.87
2023-02-14T17:46:13.701Z,101222.38
2023-02-14T17:48:40.651Z,101222.96
2023-02-14T17:51:08.059Z,101220.71
2023-02-14T17:53:34.472Z,101222.83
2023-02-14T17:56:17.468Z,101222.48
2023-02-14T17:58:47.224Z,101221.23
2023-02-14T18:01:13.499Z,101218.81
2023-02-14T18:03:39.488Z,101220.59
2023-02-14T18:06:05.725Z,101224.37
2023-02-14T18:08:36.197Z,101222.85
2023-02-14T18:11:09.971Z,101222.11
2023-02-14T18:13:36.476Z,101222.79
2023-02-14T18:16:09.792Z,101224.40
2023-02-14T18:18:35.750Z,101225.89
2023-02-14T18:21:03.494Z,101225.93
2023-02-14T18:23:30.088Z,101226.34
2023-02-14T18:25:57.498Z,101233.07
2023-02-14T18:28:24.087Z,101231.53
2023-02-14T18:30:50.114Z,101228.42
2023-02-14T18:33:17.167Z,101229.96
2023-02-14T18:35:44.268Z,101228.31
2023-02-14T18:38:10.322Z,101229.80
2023-02-14T18:40:36.338Z,101227.33
2023-02-14T18:43:02.731Z,101227.06
2023-02-14T18:45:28.675Z,101225.84
2023-02-14T18:47:55.046Z,101229.43
2023-02-14T18:50:21.140Z,101232.19
2023-02-14T18:52:47.051Z,101233.69
2023-02-14T18:55:12.965Z,101230.87
2023-02-14T18:57:39.029Z,101231.41
2023-02-14T19:00:11.315Z,101229.50
2023-02-14T19:02:53.475Z,101222.20
2023-02-14T19:05:49.746Z,101224.29
2023-02-14T19:08:16.308Z,101222.79
2023-02-14T19:10:42.212Z,101218.36
2023-02-14T19:13:08.121Z,101220.13
2023-02-14T19:15:34.052Z,101214.48
2023-02-14T19:18:00.072Z,101211.48
2023-02-14T19:20:26.004Z,101208.18
2023-02-14T19:22:52.041Z,101203.34
2023-02-14T19:25:18.049Z,101206.50
2023-02-14T19:27:44.264Z,101204.98
2023-02-14T19:30:10.917Z,101206.80
2023-02-14T19:32:41.920Z,101204.29
2023-02-14T19:35:11.258Z,101203.35
2023-02-14T19:37:37.157Z,101201.39
2023-02-14T19:40:03.391Z,101201.92
2023-02-14T19:42:29.418Z,101202.26
2023-02-14T19:44:55.552Z,101202.33
2023-02-14T19:47:33.446Z,101200.71
2023-02-14T19:50:06.320Z,101203.66
2023-02-14T19:52:32.761Z,101202.16
2023-02-14T19:54:59.932Z,101200.70
2023-02-14T19:57:25.832Z,101201.85
2023-02-14T19:59:57.700Z,101203.13
2023-02-14T20:02:27.247Z,101203.44
2023-02-14T20:04:58.165Z,101205.60
2023-02-14T20:07:24.159Z,101203.46
2023-02-14T20:09:50.307Z,101201.31
2023-02-14T20:12:16.222Z,101202.84
2023-02-14T20:14:51.270Z,101198.81
2023-02-14T20:17:18.338Z,101197.33
2023-02-14T20:19:44.330Z,101196.85
2023-02-14T20:22:10.273Z,101188.69
2023-02-14T20:24:36.172Z,101189.23
2023-02-14T20:27:02.393Z,101186.00
2023-02-14T20:29:28.371Z,101187.46
2023-02-14T20:31:57.465Z,101186.13
2023-02-14T20:34:23.590Z,101190.70
2023-02-14T20:36:52.622Z,101184.70
2023-02-14T20:39:19.187Z,101188.33
2023-02-14T20:41:49.195Z,101186.88
2023-02-14T20:44:19.113Z,101185.63
2023-02-14T20:46:45.972Z,101186.16
2023-02-14T20:49:12.488Z,101188.81
2023-02-14T20:51:38.600Z,101194.73
2023-02-14T20:54:04.741Z,101200.36
2023-02-14T20:56:30.707Z,101192.18
2023-02-14T20:58:56.638Z,101189.92
2023-02-14T21:01:23.333Z,101193.18
2023-02-14T21:03:50.873Z,101202.69
2023-02-14T21:06:17.560Z,101208.73
2023-02-14T21:08:43.937Z,101205.39
2023-02-14T21:11:11.077Z,101201.95
2023-02-14T21:13:36.994Z,101199.75
2023-02-14T21:16:04.009Z,101188.80
2023-02-14T21:18:30.202Z,101183.45
2023-02-14T21:21:06.187Z,101186.35
2023-02-14T21:23:32.273Z,101181.52
2023-02-14T21:25:58.402Z,101177.34
2023-02-14T21:28:24.615Z,101176.01
2023-02-14T21:30:50.719Z,101168.90
2023-02-14T21:33:16.986Z,101164.90
2023-02-14T21:35:43.008Z,101162.16
2023-02-14T21:38:08.934Z,101164.13
2023-02-14T21:40:34.831Z,101164.17
2023-02-14T21:43:00.701Z,101164.69
2023-02-14T21:45:45.643Z,101161.33
2023-02-14T21:48:30.157Z,101161.99
2023-02-14T21:50:56.085Z,101162.83
2023-02-14T21:53:22.011Z,101159.29
2023-02-14T21:55:47.945Z,101159.39
2023-02-14T21:58:13.921Z,101159.27
2023-02-14T22:00:40.443Z,101160.40
2023-02-14T22:03:06.353Z,101160.94
2023-02-14T22:05:32.330Z,101157.50
2023-02-14T22:07:58.247Z,101161.29
2023-02-14T22:10:24.165Z,101161.36
2023-02-14T22:12:50.144Z,101160.29
2023-02-14T22:15:16.171Z,101156.16
2023-02-14T22:17:42.078Z,101159.62
2023-02-14T22:20:09.682Z,101159.52
2023-02-14T22:22:35.969Z,101155.90
2023-02-14T22:25:01.907Z,101157.73
2023-02-14T22:27:29.568Z,101157.84
2023-02-14T22:29:55.509Z,101156.95
2023-02-14T22:32:21.494Z,101159.17
2023-02-14T22:34:47.436Z,101158.16
2023-02-14T22:37:13.546Z,101156.14
2023-02-14T22:39:39.501Z,101156.42
2023-02-14T22:42:06.617Z,101162.25
2023-02-14T22:44:32.508Z,101159.84
2023-02-14T22:46:58.391Z,101161.96
2023-02-14T22:49:24.298Z,101164.41
2023-02-14T22:51:50.911Z,101164.25
2023-02-14T22:54:16.925Z,101166.98
2023-02-14T22:56:44.373Z,101161.27
2023-02-14T22:59:17.572Z,101163.36
2023-02-14T23:01:43.658Z,101160.83
2023-02-14T23:04:09.697Z,101156.55
2023-02-14T23:06:35.961Z,101157.23
2023-02-14T23:09:06.535Z,101157.23
2023-02-14T23:11:33.954Z,101154.74
2023-02-14T23:14:18.619Z,101152.73
2023-02-14T23:17:03.787Z,101153.27
2023-02-14T23:19:50.418Z,101154.70
2023-02-14T23:22:20.107Z,101146.66
2023-02-14T23:24:50.344Z,101146.08
2023-02-14T23:27:18.195Z,101145.08
2023-02-14T23:29:44.339Z,101139.50
2023-02-14T23:32:10.378Z,101141.17
2023-02-14T23:34:38.552Z,101135.33
2023-02-14T23:37:04.660Z,101135.87
2023-02-14T23:39:36.097Z,101132.31
2023-02-14T23:42:03.243Z,101130.80
2023-02-14T23:44:30.115Z,101129.89
2023-02-14T23:46:57.988Z,101129.08
2023-02-14T23:49:24.266Z,101119.11
2023-02-14T23:51:51.026Z,101124.77
2023-02-14T23:54:17.156Z,101127.30
2023-02-14T23:56:44.638Z,101132.41
2023-02-14T23:59:11.356Z,101129.64
